Wednesday, January 28, 2015
16:13 UTC
  |  Log In   |  Register Free
Airport Search:

Durant Regional - Eaker Field Airport
(KDUA)

Durant Regional - Eaker Field Airport Diagram
No Airport Diagram Available

FAA data valid effective January 08, 2015 - March 05, 2015 (unless otherwise noted).

 
 
 
 
 
 
 
 
 
 
 
 
 
 

Current Aviation Weather for Durant Regional - Eaker Field Airport (KDUA)

The most recent METAR observation for KDUA was updated at: 1609
METAR Summary (Translated METAR)
KDUA
281555Z AUTO 17009KT 10SM CLR 17/08 A3011 RMK AO2
KGYI
281555Z AUTO 17009KT 10SM CLR 18/08 A3011 RMK AO2 T01820077
(19.5 nm SW from KDUA)
KAQR
281555Z AUTO 14005KT 10SM CLR 13/04 A3011 RMK AO2
(30 nm NE from KDUA)
TAF
No TAF information found within 50 nm of KDUA
  Airport Weather Conditions for KDUA

 Current Weather at DUA
52° F
Fair
South winds at 5.8 mph
DUA NOAA Radar

Pressure: 30.10 in
Humidity: 77%
Wind: South at 5.8 MPH (5 KT)
Dew Point: 44.6°F
Visibility: 10.00 mi


Airport Weather Forecast for KDUA

Translated METAR and TAF for KDUA
Translated METAR for KDUA (1614 UTC 28 January 2015)
found at http://aviationweather.gov/adds/metars/
 
METAR text: KDUA 281555Z AUTO 17009KT 10SM CLR 17/08 A3011 RMK AO2
Conditions at: KDUA (DURANT , OK, US) observed 1555 UTC 28 January 2015
Temperature: 17.0°C (63°F)
Dewpoint: 8.0°C (46°F) [RH = 55%]
Pressure (altimeter): 30.11 inches Hg (1019.7 mb)
Winds: from the S (170 degrees) at 10 MPH (9 knots; 4.7 m/s)
Visibility: 10 or more miles (16+ km)
Ceiling: at least 12,000 feet AGL
Clouds: sky clear below 12,000 feet AGL
Weather: automated observation with no human augmentation;
there may or may not be significant weather present at this time
Translated TAF for KDUA

There is no translated TAF available for this airport

Find All Airport Services Find A Hotel Find A Rental Car Find A Golf Course Find A Restaurant $100 Hamburger



FBO's on the Field
FBO Company Facility Photos Services Transportation Aviation Fuel Prices: Prices include tax
Catering Weather Repair Courtesy Rental Type 100LL JetA JetA+ MOGAS 8087
 
D/W Aviation

This FBO has not yet been rated
FS:Avfuel
Last Updated: Jan-08
Login to update fuel prices
SS:
Contact D/W AviationMore FBO Information
 
Add another FBO Facility Photos Catering Weather Repair Courtesy Rental Type 100LL JetA JetA+ MOGAS 8087
Services Transportation Aviation Fuel Prices: Prices include tax


model-print
model-print
model-print
model-print